createdAt,value
2023-02-19T00:03:17.974Z,11.23
2023-02-19T00:08:09.916Z,11.65
2023-02-19T00:13:01.752Z,11.07
2023-02-19T00:17:53.597Z,10.45
2023-02-19T00:22:45.487Z,10.57
2023-02-19T00:27:37.305Z,9.52
2023-02-19T00:32:29.488Z,10.23
2023-02-19T00:37:21.265Z,9.50
2023-02-19T00:42:13.125Z,11.05
2023-02-19T00:47:05.024Z,11.15
2023-02-19T00:51:56.933Z,9.88
2023-02-19T00:56:49.343Z,10.10
2023-02-19T01:01:41.962Z,10.30
2023-02-19T01:06:34.794Z,11.63
2023-02-19T01:11:27.769Z,9.70
2023-02-19T01:16:22.220Z,11.13
2023-02-19T01:21:20.167Z,9.88
2023-02-19T01:26:17.682Z,11.63
2023-02-19T01:31:14.495Z,10.07
2023-02-19T01:36:07.393Z,10.50
2023-02-19T01:41:04.999Z,11.10
2023-02-19T01:45:56.939Z,12.23
2023-02-19T01:50:56.016Z,11.30
2023-02-19T01:55:48.952Z,11.98
2023-02-19T02:00:41.293Z,10.90
2023-02-19T02:05:57.883Z,11.65
2023-02-19T02:10:50.872Z,11.07
2023-02-19T02:16:00.056Z,11.40
2023-02-19T02:21:10.564Z,11.48
2023-02-19T02:26:19.979Z,11.13
2023-02-19T02:31:18.706Z,10.20
2023-02-19T02:36:12.589Z,9.85
2023-02-19T02:41:05.755Z,8.73
2023-02-19T02:45:58.114Z,10.38
2023-02-19T02:50:54.820Z,9.20
2023-02-19T02:55:50.096Z,10.32
2023-02-19T03:01:02.984Z,10.45
2023-02-19T03:05:59.392Z,10.15
2023-02-19T03:11:24.638Z,9.65
2023-02-19T03:16:55.806Z,9.60
2023-02-19T03:22:18.082Z,10.88
2023-02-19T03:27:11.130Z,9.20
2023-02-19T03:32:19.377Z,9.55
2023-02-19T03:37:25.287Z,10.82
2023-02-19T03:42:57.549Z,9.70
2023-02-19T03:48:04.967Z,11.88
2023-02-19T03:53:01.361Z,10.15
2023-02-19T03:58:03.335Z,9.88
2023-02-19T04:03:07.407Z,9.63
2023-02-19T04:08:09.224Z,10.07
2023-02-19T04:13:13.251Z,12.30
2023-02-19T04:18:08.081Z,10.68
2023-02-19T04:23:00.046Z,9.52
2023-02-19T04:27:51.993Z,11.10
2023-02-19T04:32:43.802Z,10.05
2023-02-19T04:37:35.790Z,11.50
2023-02-19T04:42:27.929Z,10.43
2023-02-19T04:47:19.712Z,8.90
2023-02-19T04:52:11.598Z,9.95
2023-02-19T04:57:03.706Z,11.18
2023-02-19T05:01:55.719Z,10.27
2023-02-19T05:06:47.609Z,9.87
2023-02-19T05:11:39.608Z,10.98
2023-02-19T05:16:31.493Z,11.63
2023-02-19T05:21:23.505Z,11.82
2023-02-19T05:26:18.177Z,11.13
2023-02-19T05:31:12.089Z,11.00
2023-02-19T05:36:07.114Z,13.13
2023-02-19T05:41:19.312Z,10.93
2023-02-19T05:46:12.757Z,10.32
2023-02-19T05:51:12.525Z,11.63
2023-02-19T05:56:04.973Z,11.40
2023-02-19T06:00:57.154Z,14.02
2023-02-19T06:05:49.082Z,17.38
2023-02-19T06:10:44.528Z,16.70
2023-02-19T06:15:37.094Z,17.27
2023-02-19T06:20:29.823Z,17.55
2023-02-19T06:25:21.741Z,15.75
2023-02-19T06:30:13.879Z,17.77
2023-02-19T06:35:06.281Z,15.30
2023-02-19T06:39:58.185Z,18.48
2023-02-19T06:44:50.364Z,19.80
2023-02-19T06:49:42.400Z,18.30
2023-02-19T06:54:34.363Z,19.07
2023-02-19T06:59:26.691Z,18.50
2023-02-19T07:04:18.786Z,18.02
2023-02-19T07:09:11.406Z,20.90
2023-02-19T07:14:05.257Z,18.65
2023-02-19T07:18:58.798Z,18.75
2023-02-19T07:23:50.665Z,18.70
2023-02-19T07:28:43.891Z,17.95
2023-02-19T07:33:35.905Z,18.52
2023-02-19T07:38:28.058Z,19.63
2023-02-19T07:43:20.021Z,18.07
2023-02-19T07:48:12.178Z,16.00
2023-02-19T07:53:04.022Z,16.10
2023-02-19T07:57:58.730Z,17.58
2023-02-19T08:03:03.364Z,16.40
2023-02-19T08:07:55.320Z,15.40
2023-02-19T08:13:19.537Z,15.82
2023-02-19T08:18:11.783Z,15.38
2023-02-19T08:23:03.697Z,14.30
2023-02-19T08:27:55.552Z,15.52
2023-02-19T08:32:47.337Z,13.90
2023-02-19T08:37:39.403Z,13.40
2023-02-19T08:42:31.212Z,13.80
2023-02-19T08:47:23.055Z,13.38
2023-02-19T08:52:14.982Z,12.68
2023-02-19T08:57:06.806Z,13.50
2023-02-19T09:01:59.271Z,13.15
2023-02-19T09:06:51.266Z,13.07
2023-02-19T09:11:43.356Z,13.88
2023-02-19T09:16:36.242Z,10.80
2023-02-19T09:26:19.984Z,10.50
2023-02-19T09:31:15.799Z,10.43
2023-02-19T09:36:08.080Z,11.30
2023-02-19T09:41:00.373Z,10.07
2023-02-19T09:46:05.008Z,11.10
2023-02-19T09:50:57.528Z,11.23
2023-02-19T09:55:49.599Z,9.55
2023-02-19T10:00:41.548Z,9.63
2023-02-19T10:05:34.882Z,9.47
2023-02-19T10:10:34.664Z,9.20
2023-02-19T10:15:38.168Z,8.82
2023-02-19T10:20:30.071Z,9.23
2023-02-19T10:25:21.902Z,8.30
2023-02-19T10:30:25.222Z,9.73
2023-02-19T10:35:17.212Z,10.77
2023-02-19T10:40:21.218Z,8.30
2023-02-19T10:45:23.266Z,8.52
2023-02-19T10:50:27.176Z,7.97
2023-02-19T10:55:29.839Z,8.38
2023-02-19T11:00:29.745Z,9.55
2023-02-19T11:05:21.938Z,8.07
2023-02-19T11:10:28.847Z,9.15
2023-02-19T11:15:21.751Z,9.55
2023-02-19T11:25:17.877Z,7.43
2023-02-19T11:30:33.878Z,7.13
2023-02-19T11:35:27.203Z,8.10
2023-02-19T11:40:19.063Z,6.93
2023-02-19T11:45:27.093Z,8.32
2023-02-19T11:50:27.545Z,8.80
2023-02-19T11:55:37.807Z,8.13
2023-02-19T12:00:31.069Z,7.93
2023-02-19T12:05:27.035Z,8.77
2023-02-19T12:10:44.652Z,7.30
2023-02-19T12:16:06.059Z,7.90
2023-02-19T12:21:18.324Z,7.00
2023-02-19T12:26:25.440Z,8.53
2023-02-19T12:31:17.401Z,8.20
2023-02-19T12:36:18.463Z,7.37
2023-02-19T12:41:31.575Z,9.70
2023-02-19T12:51:25.467Z,7.80
2023-02-19T12:56:35.595Z,7.95
2023-02-19T13:01:38.980Z,6.82
2023-02-19T13:07:07.335Z,8.45
2023-02-19T13:12:11.624Z,8.45
2023-02-19T13:17:16.700Z,7.60
2023-02-19T13:22:58.549Z,6.90
2023-02-19T13:28:03.296Z,6.10
2023-02-19T13:33:30.635Z,6.53
2023-02-19T13:38:22.790Z,7.50
2023-02-19T13:43:26.210Z,7.47
2023-02-19T13:48:23.955Z,6.55
2023-02-19T13:53:44.954Z,6.82
2023-02-19T13:58:39.925Z,7.65
2023-02-19T14:03:37.797Z,7.53
2023-02-19T14:08:58.615Z,6.30
2023-02-19T14:13:50.932Z,6.93
2023-02-19T14:18:42.850Z,8.07
2023-02-19T14:23:34.724Z,7.20
2023-02-19T14:28:38.400Z,6.53
2023-02-19T14:33:40.198Z,6.30
2023-02-19T14:39:10.797Z,7.40
2023-02-19T14:44:03.654Z,7.70
2023-02-19T14:53:47.455Z,6.53
2023-02-19T14:58:40.892Z,10.77
2023-02-19T15:03:37.894Z,6.68
2023-02-19T15:08:37.634Z,7.57
2023-02-19T15:13:29.990Z,8.23
2023-02-19T15:18:23.953Z,8.38
2023-02-19T15:23:26.143Z,8.80
2023-02-19T15:28:32.979Z,7.50
2023-02-19T15:33:27.395Z,6.68
2023-02-19T15:38:19.617Z,6.78
2023-02-19T15:43:26.139Z,7.47
2023-02-19T15:48:25.014Z,6.88
2023-02-19T15:53:24.199Z,6.13
2023-02-19T15:58:28.077Z,8.00
2023-02-19T16:03:22.512Z,6.68
2023-02-19T16:08:14.305Z,7.22
2023-02-19T16:13:08.283Z,6.85
2023-02-19T16:18:00.609Z,6.00
2023-02-19T16:22:57.736Z,7.57
2023-02-19T16:27:49.610Z,6.05
2023-02-19T16:32:41.925Z,6.40
2023-02-19T16:37:33.750Z,7.32
2023-02-19T16:42:25.827Z,6.47
2023-02-19T16:47:24.886Z,6.53
2023-02-19T16:52:17.012Z,5.55
2023-02-19T16:57:08.854Z,7.13
2023-02-19T17:02:01.090Z,8.18
2023-02-19T17:06:52.967Z,7.40
2023-02-19T17:11:44.805Z,7.87
2023-02-19T17:16:40.380Z,8.55
2023-02-19T17:21:33.600Z,8.25
2023-02-19T17:26:30.398Z,8.23
2023-02-19T17:31:22.753Z,8.38
2023-02-19T17:36:20.294Z,9.30
2023-02-19T17:41:12.503Z,9.35
2023-02-19T17:46:04.991Z,7.25
2023-02-19T17:50:57.057Z,8.52
2023-02-19T17:55:48.887Z,7.47
2023-02-19T18:00:40.707Z,10.05
2023-02-19T18:05:32.514Z,8.60
2023-02-19T18:10:24.363Z,8.30
2023-02-19T18:15:19.367Z,8.35
2023-02-19T18:20:26.502Z,12.07
2023-02-19T18:25:19.411Z,8.88
2023-02-19T18:35:04.441Z,10.05
2023-02-19T18:39:56.515Z,9.30
2023-02-19T18:44:49.165Z,10.90
2023-02-19T18:49:44.745Z,9.85
2023-02-19T18:54:36.622Z,11.48
2023-02-19T18:59:28.549Z,10.48
2023-02-19T19:04:20.534Z,8.60
2023-02-19T19:09:12.655Z,10.53
2023-02-19T19:14:04.849Z,9.93
2023-02-19T19:18:56.936Z,10.80
2023-02-19T19:23:48.967Z,9.80
2023-02-19T19:28:44.427Z,10.57
2023-02-19T19:33:36.191Z,11.48
2023-02-19T19:38:28.014Z,9.25
2023-02-19T19:43:19.834Z,10.75
2023-02-19T19:48:11.693Z,10.52
2023-02-19T19:53:03.699Z,10.60
2023-02-19T19:57:55.535Z,10.03
2023-02-19T20:02:47.373Z,12.18
2023-02-19T20:07:39.634Z,10.05
2023-02-19T20:12:31.652Z,10.55
2023-02-19T20:17:27.693Z,11.60
2023-02-19T20:22:19.998Z,11.70
2023-02-19T20:27:11.973Z,10.80
2023-02-19T20:32:04.055Z,9.93
2023-02-19T20:36:55.964Z,9.50
2023-02-19T20:41:49.499Z,9.82
2023-02-19T20:46:42.622Z,9.52
2023-02-19T20:51:46.322Z,9.25
2023-02-19T20:56:44.302Z,8.98
2023-02-19T21:01:36.227Z,9.15
2023-02-19T21:06:28.197Z,11.47
2023-02-19T21:11:20.005Z,10.30
2023-02-19T21:16:12.166Z,9.80
2023-02-19T21:21:04.298Z,9.98
2023-02-19T21:25:56.343Z,9.87
2023-02-19T21:30:48.868Z,10.33
2023-02-19T21:35:40.603Z,11.07
2023-02-19T21:40:32.967Z,9.52
2023-02-19T21:45:24.858Z,9.77
2023-02-19T21:50:16.738Z,11.40
2023-02-19T21:55:08.664Z,10.60
2023-02-19T22:00:00.692Z,11.20
2023-02-19T22:04:57.696Z,11.13
2023-02-19T22:09:50.326Z,10.30
2023-02-19T22:14:42.270Z,13.15
2023-02-19T22:19:34.140Z,9.87
2023-02-19T22:24:25.966Z,10.38
2023-02-19T22:29:18.062Z,11.40
2023-02-19T22:34:09.957Z,12.77
2023-02-19T22:39:01.977Z,11.57
2023-02-19T22:43:57.807Z,11.50
2023-02-19T22:48:49.825Z,11.77
2023-02-19T22:53:52.558Z,11.70
2023-02-19T22:58:44.691Z,15.05
2023-02-19T23:03:55.451Z,14.13
2023-02-19T23:08:47.302Z,14.30
2023-02-19T23:13:41.589Z,15.40
2023-02-19T23:18:33.530Z,15.43
2023-02-19T23:23:25.625Z,16.00
2023-02-19T23:28:17.440Z,13.67
2023-02-19T23:33:09.276Z,16.77
2023-02-19T23:38:01.487Z,16.48
2023-02-19T23:42:54.878Z,14.38
2023-02-19T23:47:46.707Z,14.70
2023-02-19T23:52:38.657Z,16.83
2023-02-19T23:57:30.511Z,14.93
